createdAt,value
2022-08-04T00:00:17.354Z,100.00
2022-08-04T00:06:17.004Z,100.00
2022-08-04T00:11:23.618Z,100.00
2022-08-04T00:16:32.929Z,100.00
2022-08-04T00:21:45.009Z,100.00
2022-08-04T00:26:56.218Z,100.00
2022-08-04T00:32:00.053Z,100.00
2022-08-04T00:37:01.906Z,100.00
2022-08-04T00:42:13.298Z,100.00
2022-08-04T00:47:32.269Z,100.00
2022-08-04T00:52:46.692Z,100.00
2022-08-04T00:58:08.118Z,100.00
2022-08-04T01:03:18.257Z,100.00
2022-08-04T01:09:10.959Z,100.00
2022-08-04T01:14:44.695Z,100.00
2022-08-04T01:20:02.249Z,100.00
2022-08-04T01:25:32.586Z,100.00
2022-08-04T01:30:38.072Z,100.00
2022-08-04T01:35:55.609Z,100.00
2022-08-04T01:41:03.094Z,100.00
2022-08-04T01:46:13.491Z,100.00
2022-08-04T01:51:15.204Z,100.00
2022-08-04T01:56:18.559Z,100.00
2022-08-04T02:01:20.567Z,100.00
2022-08-04T02:06:27.580Z,100.00
2022-08-04T02:11:36.921Z,100.00
2022-08-04T02:16:52.718Z,100.00
2022-08-04T02:22:06.514Z,100.00
2022-08-04T02:27:11.220Z,100.00
2022-08-04T02:32:31.781Z,100.00
2022-08-04T02:37:34.303Z,100.00
2022-08-04T02:42:40.865Z,100.00
2022-08-04T02:48:08.166Z,100.00
2022-08-04T02:53:15.433Z,100.00
2022-08-04T02:58:20.315Z,100.00
2022-08-04T03:03:35.154Z,100.00
2022-08-04T03:09:15.141Z,100.00
2022-08-04T03:14:47.695Z,100.00
2022-08-04T03:20:32.603Z,100.00
2022-08-04T03:26:12.003Z,100.00
2022-08-04T03:31:35.808Z,100.00
2022-08-04T03:37:03.959Z,100.00
2022-08-04T03:42:29.960Z,100.00
2022-08-04T03:47:51.967Z,100.00
2022-08-04T03:53:24.589Z,100.00
2022-08-04T03:58:43.771Z,100.00
2022-08-04T04:04:03.136Z,100.00
2022-08-04T04:09:23.292Z,100.00
2022-08-04T04:14:52.898Z,100.00
2022-08-04T04:20:19.704Z,100.00
2022-08-04T04:25:26.284Z,100.00
2022-08-04T04:31:02.981Z,100.00
2022-08-04T04:36:07.866Z,100.00
2022-08-04T04:41:35.449Z,100.00
2022-08-04T04:47:10.086Z,100.00
2022-08-04T04:52:42.470Z,100.00
2022-08-04T04:57:53.548Z,100.00
2022-08-04T05:03:00.519Z,100.00
2022-08-04T05:08:43.792Z,100.00
2022-08-04T05:14:35.306Z,100.00
2022-08-04T05:19:24.508Z,100.00
2022-08-04T05:24:29.162Z,100.00
2022-08-04T05:29:46.623Z,100.00
2022-08-04T05:34:57.609Z,100.00
2022-08-04T05:40:05.013Z,100.00
2022-08-04T05:45:09.837Z,100.00
2022-08-04T05:50:16.457Z,100.00
2022-08-04T05:55:57.196Z,99.80
2022-08-04T06:00:43.298Z,99.64
2022-08-04T06:05:57.831Z,98.89
2022-08-04T06:11:04.175Z,98.21
2022-08-04T06:16:06.939Z,98.01
2022-08-04T06:21:16.454Z,97.00
2022-08-04T06:26:21.680Z,95.57
2022-08-04T06:32:28.386Z,95.33
2022-08-04T06:37:43.054Z,93.63
2022-08-04T06:42:49.837Z,93.03
2022-08-04T06:47:51.933Z,92.93
2022-08-04T06:52:59.394Z,91.03
2022-08-04T06:58:03.544Z,90.24
2022-08-04T07:03:07.176Z,89.79
2022-08-04T07:08:10.705Z,88.66
2022-08-04T07:13:17.298Z,87.27
2022-08-04T07:18:21.192Z,86.50
2022-08-04T07:23:24.636Z,85.69
2022-08-04T07:28:31.026Z,84.93
2022-08-04T07:33:37.373Z,84.03
2022-08-04T07:38:49.732Z,83.26
2022-08-04T07:43:54.926Z,82.44
2022-08-04T07:48:58.421Z,81.97
2022-08-04T07:54:00.698Z,81.38
2022-08-04T07:59:05.147Z,80.29
2022-08-04T08:04:11.679Z,79.40
2022-08-04T08:09:18.792Z,79.41
2022-08-04T08:14:23.627Z,79.16
2022-08-04T08:19:25.742Z,78.80
2022-08-04T08:24:33.804Z,77.37
2022-08-04T08:29:36.220Z,75.97
2022-08-04T08:34:41.924Z,75.02
2022-08-04T08:40:04.586Z,74.45
2022-08-04T08:45:36.357Z,73.79
2022-08-04T08:50:50.806Z,73.12
2022-08-04T08:56:30.941Z,71.64
2022-08-04T09:02:16.715Z,71.10
2022-08-04T09:07:58.492Z,70.39
2022-08-04T09:13:06.562Z,69.44
2022-08-04T09:18:50.897Z,69.88
2022-08-04T09:24:35.138Z,68.62
2022-08-04T09:29:47.857Z,67.20
2022-08-04T09:35:14.957Z,66.59
2022-08-04T09:40:31.743Z,66.21
2022-08-04T09:45:55.345Z,66.09
2022-08-04T09:51:00.103Z,65.55
2022-08-04T09:56:17.482Z,65.68
2022-08-04T10:01:26.604Z,65.75
2022-08-04T10:06:32.867Z,65.33
2022-08-04T10:11:56.270Z,65.92
2022-08-04T10:17:52.038Z,64.87
2022-08-04T10:23:18.261Z,67.89
2022-08-04T10:28:23.974Z,66.80
2022-08-04T10:33:28.577Z,65.93
2022-08-04T10:38:44.899Z,65.49
2022-08-04T10:44:06.648Z,62.01
2022-08-04T10:49:26.221Z,62.23
2022-08-04T10:54:48.285Z,60.68
2022-08-04T11:00:03.384Z,60.07
2022-08-04T11:05:12.284Z,60.71
2022-08-04T11:10:22.985Z,58.67
2022-08-04T11:15:45.157Z,56.89
2022-08-04T11:21:04.332Z,58.28
2022-08-04T11:26:32.259Z,55.57
2022-08-04T11:31:40.640Z,54.13
2022-08-04T11:37:30.111Z,56.67
2022-08-04T11:42:43.307Z,58.52
2022-08-04T11:48:05.251Z,57.35
2022-08-04T11:53:08.009Z,57.22
2022-08-04T11:58:10.350Z,55.87
2022-08-04T12:03:29.364Z,53.63
2022-08-04T12:08:51.846Z,51.73
2022-08-04T12:14:20.937Z,49.41
2022-08-04T12:20:04.213Z,48.79
2022-08-04T12:25:14.481Z,51.38
2022-08-04T12:30:58.084Z,46.09
2022-08-04T12:36:10.658Z,46.44
2022-08-04T12:41:19.451Z,47.90
2022-08-04T12:46:26.115Z,47.58
2022-08-04T12:52:05.666Z,47.46
2022-08-04T12:56:57.544Z,44.03
2022-08-04T13:02:08.509Z,45.69
2022-08-04T13:07:16.877Z,46.51
2022-08-04T13:12:31.985Z,47.74
2022-08-04T13:17:54.080Z,47.88
2022-08-04T13:23:05.918Z,46.95
2022-08-04T13:28:19.842Z,48.38
2022-08-04T13:33:23.724Z,49.76
2022-08-04T13:38:28.745Z,52.46
2022-08-04T13:44:16.623Z,53.16
2022-08-04T13:49:38.017Z,54.23
2022-08-04T13:54:46.648Z,55.31
2022-08-04T13:59:59.183Z,55.55
2022-08-04T14:05:27.986Z,56.40
2022-08-04T14:10:34.325Z,56.78
2022-08-04T14:16:02.233Z,57.42
2022-08-04T14:21:11.489Z,59.46
2022-08-04T14:26:15.299Z,61.60
2022-08-04T14:31:23.731Z,64.82
2022-08-04T14:36:27.537Z,65.71
2022-08-04T14:41:44.979Z,67.02
2022-08-04T14:46:54.977Z,68.71
2022-08-04T14:52:03.402Z,67.37
2022-08-04T14:57:11.882Z,65.34
2022-08-04T15:02:15.385Z,62.51
2022-08-04T15:07:20.746Z,51.80
2022-08-04T15:12:23.331Z,55.45
2022-08-04T15:17:30.524Z,54.69
2022-08-04T15:22:35.255Z,50.86
2022-08-04T15:27:40.281Z,48.54
2022-08-04T15:32:47.602Z,44.17
2022-08-04T15:37:58.541Z,43.58
2022-08-04T15:43:20.303Z,45.67
2022-08-04T15:48:26.573Z,41.92
2022-08-04T15:54:03.428Z,41.05
2022-08-04T15:59:05.986Z,40.68
2022-08-04T16:04:22.841Z,38.92
2022-08-04T16:09:45.374Z,39.66
2022-08-04T16:14:48.225Z,38.64
2022-08-04T16:20:02.097Z,38.19
2022-08-04T16:25:07.482Z,39.45
2022-08-04T16:30:15.115Z,41.46
2022-08-04T16:35:26.364Z,42.52
2022-08-04T16:40:33.815Z,46.54
2022-08-04T16:45:41.286Z,48.48
2022-08-04T16:50:55.593Z,50.54
2022-08-04T16:55:58.139Z,51.85
2022-08-04T17:01:32.633Z,53.54
2022-08-04T17:06:41.494Z,54.52
2022-08-04T17:11:50.200Z,55.44
2022-08-04T17:16:53.365Z,55.80
2022-08-04T17:22:04.261Z,56.76
2022-08-04T17:28:06.109Z,59.54
2022-08-04T17:32:34.764Z,59.96
2022-08-04T17:37:53.075Z,61.53
2022-08-04T17:44:02.979Z,63.02
2022-08-04T17:48:29.104Z,64.26
2022-08-04T17:54:01.797Z,65.81
2022-08-04T17:59:55.695Z,67.16
2022-08-04T18:05:06.273Z,67.35
2022-08-04T18:10:30.611Z,68.04
2022-08-04T18:15:44.140Z,69.52
2022-08-04T18:20:50.179Z,69.98
2022-08-04T18:25:52.468Z,70.79
2022-08-04T18:30:55.552Z,70.28
2022-08-04T18:36:33.610Z,70.29
2022-08-04T18:41:25.291Z,70.42
2022-08-04T18:46:30.822Z,71.15
2022-08-04T18:51:32.934Z,72.46
2022-08-04T18:56:35.014Z,72.11
2022-08-04T19:02:17.520Z,72.74
2022-08-04T19:07:29.207Z,73.48
2022-08-04T19:12:32.526Z,73.84
2022-08-04T19:17:53.829Z,73.45
2022-08-04T19:24:29.163Z,73.13
2022-08-04T19:28:20.857Z,73.75
2022-08-04T19:33:25.581Z,73.04
2022-08-04T19:38:34.964Z,72.55
2022-08-04T19:43:38.749Z,72.59
2022-08-04T19:54:23.527Z,72.50
2022-08-04T19:59:28.197Z,72.22
2022-08-04T20:04:34.213Z,73.18
2022-08-04T20:09:38.537Z,73.50
2022-08-04T20:14:42.560Z,72.79
2022-08-04T20:19:51.429Z,72.99
2022-08-04T20:30:16.342Z,73.65
2022-08-04T20:35:26.778Z,72.20
2022-08-04T20:40:32.040Z,73.10
2022-08-04T20:45:56.635Z,73.44
2022-08-04T20:51:04.810Z,74.06
2022-08-04T20:56:06.844Z,74.88
2022-08-04T21:01:14.475Z,74.88
2022-08-04T21:06:18.739Z,75.79
2022-08-04T21:11:32.904Z,75.65
2022-08-04T21:16:54.768Z,76.68
2022-08-04T21:21:58.233Z,76.85
2022-08-04T21:27:06.279Z,77.88
2022-08-04T21:32:11.494Z,77.35
2022-08-04T21:37:21.578Z,77.87
2022-08-04T21:42:29.256Z,77.65
2022-08-04T21:47:45.975Z,78.40
2022-08-04T21:52:53.274Z,78.86
2022-08-04T21:57:56.679Z,80.15
2022-08-04T22:03:03.361Z,80.54
2022-08-04T22:08:07.772Z,80.66
2022-08-04T22:13:22.719Z,80.62
2022-08-04T22:18:27.492Z,81.15
2022-08-04T22:23:30.850Z,81.55
2022-08-04T22:28:49.324Z,81.66
2022-08-04T22:33:55.444Z,82.30
2022-08-04T22:39:06.875Z,83.04
2022-08-04T22:44:15.499Z,82.93
2022-08-04T22:49:17.935Z,83.08
2022-08-04T22:54:25.980Z,83.18
2022-08-04T22:59:32.418Z,83.37
2022-08-04T23:04:35.313Z,84.38
2022-08-04T23:09:50.216Z,84.12
2022-08-04T23:15:04.388Z,84.19
2022-08-04T23:20:22.903Z,85.09
2022-08-04T23:25:33.269Z,84.80
2022-08-04T23:30:49.249Z,85.40
2022-08-04T23:35:58.218Z,86.04
2022-08-04T23:41:07.265Z,86.66
2022-08-04T23:46:19.861Z,86.31
2022-08-04T23:51:22.827Z,87.76
2022-08-04T23:56:24.545Z,88.34
